sensor_id;sensor_type;location;lat;lon;timestamp;P1;durP1;ratioP1;P2;durP2;ratioP2
2686;SDS011;1353;51.386;7.028;2022-09-09T00:01:37;1.40;;;1.30;;
2686;SDS011;1353;51.386;7.028;2022-09-09T00:04:13;2.20;;;1.33;;
2686;SDS011;1353;51.386;7.028;2022-09-09T00:06:49;1.60;;;1.50;;
2686;SDS011;1353;51.386;7.028;2022-09-09T00:09:22;2.33;;;1.37;;
2686;SDS011;1353;51.386;7.028;2022-09-09T00:11:52;1.40;;;1.30;;
2686;SDS011;1353;51.386;7.028;2022-09-09T00:14:26;3.63;;;1.40;;
2686;SDS011;1353;51.386;7.028;2022-09-09T00:17:03;2.40;;;1.60;;
2686;SDS011;1353;51.386;7.028;2022-09-09T00:19:37;1.30;;;1.30;;
2686;SDS011;1353;51.386;7.028;2022-09-09T00:22:14;1.67;;;1.10;;
2686;SDS011;1353;51.386;7.028;2022-09-09T00:24:43;1.53;;;1.20;;
2686;SDS011;1353;51.386;7.028;2022-09-09T00:27:16;1.30;;;1.20;;
2686;SDS011;1353;51.386;7.028;2022-09-09T00:29:51;1.87;;;1.20;;
2686;SDS011;1353;51.386;7.028;2022-09-09T00:32:21;3.10;;;1.33;;
2686;SDS011;1353;51.386;7.028;2022-09-09T00:34:51;1.83;;;1.47;;
2686;SDS011;1353;51.386;7.028;2022-09-09T00:37:21;4.10;;;1.10;;
2686;SDS011;1353;51.386;7.028;2022-09-09T00:39:50;1.53;;;1.10;;
2686;SDS011;1353;51.386;7.028;2022-09-09T00:42:23;1.30;;;1.20;;
2686;SDS011;1353;51.386;7.028;2022-09-09T00:44:53;1.80;;;1.70;;
2686;SDS011;1353;51.386;7.028;2022-09-09T00:50:39;3.00;;;2.10;;
2686;SDS011;1353;51.386;7.028;2022-09-09T00:53:29;3.23;;;2.13;;
2686;SDS011;1353;51.386;7.028;2022-09-09T00:56:05;3.00;;;2.10;;
2686;SDS011;1353;51.386;7.028;2022-09-09T00:58:38;4.27;;;2.10;;
2686;SDS011;1353;51.386;7.028;2022-09-09T01:01:08;1.83;;;1.73;;
2686;SDS011;1353;51.386;7.028;2022-09-09T01:03:40;2.60;;;2.20;;
2686;SDS011;1353;51.386;7.028;2022-09-09T01:06:14;5.27;;;3.20;;
2686;SDS011;1353;51.386;7.028;2022-09-09T01:08:57;2.90;;;2.40;;
2686;SDS011;1353;51.386;7.028;2022-09-09T01:11:45;4.57;;;2.47;;
2686;SDS011;1353;51.386;7.028;2022-09-09T01:14:22;4.13;;;2.90;;
2686;SDS011;1353;51.386;7.028;2022-09-09T01:16:59;3.60;;;3.00;;
2686;SDS011;1353;51.386;7.028;2022-09-09T01:19:35;4.30;;;3.17;;
2686;SDS011;1353;51.386;7.028;2022-09-09T01:22:11;3.80;;;3.17;;
2686;SDS011;1353;51.386;7.028;2022-09-09T01:24:51;9.00;;;3.90;;
2686;SDS011;1353;51.386;7.028;2022-09-09T01:27:39;7.43;;;3.90;;
2686;SDS011;1353;51.386;7.028;2022-09-09T01:30:08;12.53;;;4.70;;
2686;SDS011;1353;51.386;7.028;2022-09-09T01:32:39;7.07;;;3.40;;
2686;SDS011;1353;51.386;7.028;2022-09-09T01:35:09;9.23;;;4.50;;
2686;SDS011;1353;51.386;7.028;2022-09-09T01:37:39;7.23;;;3.73;;
2686;SDS011;1353;51.386;7.028;2022-09-09T01:40:06;5.13;;;3.40;;
2686;SDS011;1353;51.386;7.028;2022-09-09T01:42:33;8.33;;;3.67;;
2686;SDS011;1353;51.386;7.028;2022-09-09T01:45:01;5.03;;;2.83;;
2686;SDS011;1353;51.386;7.028;2022-09-09T01:47:29;3.60;;;3.20;;
2686;SDS011;1353;51.386;7.028;2022-09-09T01:49:56;4.27;;;3.13;;
2686;SDS011;1353;51.386;7.028;2022-09-09T01:52:23;5.40;;;3.03;;
2686;SDS011;1353;51.386;7.028;2022-09-09T01:54:50;3.20;;;2.83;;
2686;SDS011;1353;51.386;7.028;2022-09-09T01:57:17;3.20;;;2.40;;
2686;SDS011;1353;51.386;7.028;2022-09-09T01:59:51;5.80;;;2.20;;
2686;SDS011;1353;51.386;7.028;2022-09-09T02:02:26;4.27;;;2.87;;
2686;SDS011;1353;51.386;7.028;2022-09-09T02:05:01;7.70;;;2.60;;
2686;SDS011;1353;51.386;7.028;2022-09-09T02:07:37;2.87;;;2.50;;
2686;SDS011;1353;51.386;7.028;2022-09-09T02:10:08;6.37;;;2.70;;
2686;SDS011;1353;51.386;7.028;2022-09-09T02:12:39;3.67;;;3.37;;
2686;SDS011;1353;51.386;7.028;2022-09-09T02:15:11;6.50;;;4.13;;
2686;SDS011;1353;51.386;7.028;2022-09-09T02:17:45;7.10;;;4.50;;
2686;SDS011;1353;51.386;7.028;2022-09-09T02:20:15;9.63;;;5.30;;
2686;SDS011;1353;51.386;7.028;2022-09-09T02:22:46;7.27;;;5.70;;
2686;SDS011;1353;51.386;7.028;2022-09-09T02:25:18;12.90;;;5.10;;
2686;SDS011;1353;51.386;7.028;2022-09-09T02:27:47;7.20;;;4.20;;
2686;SDS011;1353;51.386;7.028;2022-09-09T02:30:16;9.73;;;4.60;;
2686;SDS011;1353;51.386;7.028;2022-09-09T02:32:46;5.17;;;3.77;;
2686;SDS011;1353;51.386;7.028;2022-09-09T02:35:17;5.23;;;4.20;;
2686;SDS011;1353;51.386;7.028;2022-09-09T02:37:46;5.87;;;4.27;;
2686;SDS011;1353;51.386;7.028;2022-09-09T02:40:15;5.33;;;4.30;;
2686;SDS011;1353;51.386;7.028;2022-09-09T02:42:42;7.13;;;4.37;;
2686;SDS011;1353;51.386;7.028;2022-09-09T02:45:11;9.37;;;4.70;;
2686;SDS011;1353;51.386;7.028;2022-09-09T02:47:41;6.23;;;4.20;;
2686;SDS011;1353;51.386;7.028;2022-09-09T02:50:15;9.73;;;5.03;;
2686;SDS011;1353;51.386;7.028;2022-09-09T02:52:47;9.20;;;4.83;;
2686;SDS011;1353;51.386;7.028;2022-09-09T02:55:23;6.13;;;4.40;;
2686;SDS011;1353;51.386;7.028;2022-09-09T02:57:54;7.00;;;4.03;;
2686;SDS011;1353;51.386;7.028;2022-09-09T03:00:23;7.20;;;3.63;;
2686;SDS011;1353;51.386;7.028;2022-09-09T03:02:52;5.13;;;3.90;;
2686;SDS011;1353;51.386;7.028;2022-09-09T03:05:19;4.10;;;3.70;;
2686;SDS011;1353;51.386;7.028;2022-09-09T03:07:46;4.57;;;4.13;;
2686;SDS011;1353;51.386;7.028;2022-09-09T03:10:14;3.90;;;3.30;;
2686;SDS011;1353;51.386;7.028;2022-09-09T03:12:41;5.03;;;3.00;;
2686;SDS011;1353;51.386;7.028;2022-09-09T03:15:08;7.50;;;3.00;;
2686;SDS011;1353;51.386;7.028;2022-09-09T03:17:35;5.27;;;3.43;;
2686;SDS011;1353;51.386;7.028;2022-09-09T03:20:04;4.40;;;3.20;;
2686;SDS011;1353;51.386;7.028;2022-09-09T03:22:32;5.17;;;3.73;;
2686;SDS011;1353;51.386;7.028;2022-09-09T03:24:59;4.97;;;3.37;;
2686;SDS011;1353;51.386;7.028;2022-09-09T03:27:27;5.77;;;3.37;;
2686;SDS011;1353;51.386;7.028;2022-09-09T03:29:54;6.90;;;3.40;;
2686;SDS011;1353;51.386;7.028;2022-09-09T03:32:21;6.20;;;3.50;;
2686;SDS011;1353;51.386;7.028;2022-09-09T03:34:51;7.80;;;3.23;;
2686;SDS011;1353;51.386;7.028;2022-09-09T03:37:20;4.63;;;3.13;;
2686;SDS011;1353;51.386;7.028;2022-09-09T03:39:47;7.17;;;3.63;;
2686;SDS011;1353;51.386;7.028;2022-09-09T03:42:14;10.60;;;3.87;;
2686;SDS011;1353;51.386;7.028;2022-09-09T03:44:43;5.57;;;2.63;;
2686;SDS011;1353;51.386;7.028;2022-09-09T03:47:15;7.30;;;3.67;;
2686;SDS011;1353;51.386;7.028;2022-09-09T03:49:42;4.87;;;4.20;;
2686;SDS011;1353;51.386;7.028;2022-09-09T03:52:09;7.93;;;4.47;;
2686;SDS011;1353;51.386;7.028;2022-09-09T03:54:37;5.70;;;3.80;;
2686;SDS011;1353;51.386;7.028;2022-09-09T03:57:04;3.50;;;3.13;;
2686;SDS011;1353;51.386;7.028;2022-09-09T03:59:31;5.40;;;3.50;;
2686;SDS011;1353;51.386;7.028;2022-09-09T04:01:57;5.50;;;3.43;;
2686;SDS011;1353;51.386;7.028;2022-09-09T04:04:25;6.47;;;3.50;;
2686;SDS011;1353;51.386;7.028;2022-09-09T04:06:52;8.23;;;3.60;;
2686;SDS011;1353;51.386;7.028;2022-09-09T04:09:19;8.20;;;4.47;;
2686;SDS011;1353;51.386;7.028;2022-09-09T04:11:47;5.60;;;3.40;;
2686;SDS011;1353;51.386;7.028;2022-09-09T04:14:14;5.80;;;4.20;;
2686;SDS011;1353;51.386;7.028;2022-09-09T04:16:41;6.57;;;4.20;;
2686;SDS011;1353;51.386;7.028;2022-09-09T04:19:09;6.13;;;3.50;;
2686;SDS011;1353;51.386;7.028;2022-09-09T04:21:37;6.10;;;4.47;;
2686;SDS011;1353;51.386;7.028;2022-09-09T04:24:05;4.13;;;3.73;;
2686;SDS011;1353;51.386;7.028;2022-09-09T04:26:32;6.20;;;3.57;;
2686;SDS011;1353;51.386;7.028;2022-09-09T04:29:01;7.33;;;4.53;;
2686;SDS011;1353;51.386;7.028;2022-09-09T04:31:28;5.97;;;3.57;;
2686;SDS011;1353;51.386;7.028;2022-09-09T04:33:55;8.47;;;3.40;;
2686;SDS011;1353;51.386;7.028;2022-09-09T04:36:22;9.03;;;4.07;;
2686;SDS011;1353;51.386;7.028;2022-09-09T04:38:49;5.20;;;3.60;;
2686;SDS011;1353;51.386;7.028;2022-09-09T04:41:16;5.70;;;3.70;;
2686;SDS011;1353;51.386;7.028;2022-09-09T04:43:42;7.47;;;4.00;;
2686;SDS011;1353;51.386;7.028;2022-09-09T04:46:11;9.47;;;4.37;;
2686;SDS011;1353;51.386;7.028;2022-09-09T04:48:38;7.90;;;4.67;;
2686;SDS011;1353;51.386;7.028;2022-09-09T04:51:05;7.23;;;4.70;;
2686;SDS011;1353;51.386;7.028;2022-09-09T04:53:34;11.33;;;6.17;;
2686;SDS011;1353;51.386;7.028;2022-09-09T04:56:02;11.30;;;5.57;;
2686;SDS011;1353;51.386;7.028;2022-09-09T04:58:30;7.07;;;3.83;;
2686;SDS011;1353;51.386;7.028;2022-09-09T05:01:02;7.40;;;2.73;;
2686;SDS011;1353;51.386;7.028;2022-09-09T05:03:31;7.00;;;1.93;;
2686;SDS011;1353;51.386;7.028;2022-09-09T05:06:02;5.33;;;1.80;;
2686;SDS011;1353;51.386;7.028;2022-09-09T05:08:30;7.10;;;1.90;;
2686;SDS011;1353;51.386;7.028;2022-09-09T05:10:56;5.83;;;1.97;;
2686;SDS011;1353;51.386;7.028;2022-09-09T05:13:24;3.73;;;1.97;;
2686;SDS011;1353;51.386;7.028;2022-09-09T05:15:51;5.77;;;2.50;;
2686;SDS011;1353;51.386;7.028;2022-09-09T05:18:18;5.00;;;1.97;;
2686;SDS011;1353;51.386;7.028;2022-09-09T05:20:48;3.03;;;1.57;;
2686;SDS011;1353;51.386;7.028;2022-09-09T05:23:16;5.47;;;2.20;;
2686;SDS011;1353;51.386;7.028;2022-09-09T05:25:43;4.20;;;1.97;;
2686;SDS011;1353;51.386;7.028;2022-09-09T05:28:11;2.13;;;1.87;;
2686;SDS011;1353;51.386;7.028;2022-09-09T05:30:38;3.37;;;1.67;;
2686;SDS011;1353;51.386;7.028;2022-09-09T05:33:05;3.63;;;2.00;;
2686;SDS011;1353;51.386;7.028;2022-09-09T05:35:32;2.80;;;1.50;;
2686;SDS011;1353;51.386;7.028;2022-09-09T05:38:00;8.63;;;2.57;;
2686;SDS011;1353;51.386;7.028;2022-09-09T05:40:27;2.40;;;1.60;;
2686;SDS011;1353;51.386;7.028;2022-09-09T05:42:54;5.37;;;1.50;;
2686;SDS011;1353;51.386;7.028;2022-09-09T05:45:20;4.87;;;1.60;;
2686;SDS011;1353;51.386;7.028;2022-09-09T05:47:51;2.50;;;1.87;;
2686;SDS011;1353;51.386;7.028;2022-09-09T05:50:18;2.03;;;1.43;;
2686;SDS011;1353;51.386;7.028;2022-09-09T05:52:45;4.30;;;1.80;;
2686;SDS011;1353;51.386;7.028;2022-09-09T05:55:15;2.83;;;1.60;;
2686;SDS011;1353;51.386;7.028;2022-09-09T05:57:47;4.23;;;2.37;;
2686;SDS011;1353;51.386;7.028;2022-09-09T06:00:14;2.17;;;1.67;;
2686;SDS011;1353;51.386;7.028;2022-09-09T06:02:41;2.37;;;1.50;;
2686;SDS011;1353;51.386;7.028;2022-09-09T06:05:08;3.63;;;3.30;;
2686;SDS011;1353;51.386;7.028;2022-09-09T06:07:35;7.30;;;1.90;;
2686;SDS011;1353;51.386;7.028;2022-09-09T06:10:03;2.53;;;1.30;;
2686;SDS011;1353;51.386;7.028;2022-09-09T06:12:31;2.00;;;1.57;;
2686;SDS011;1353;51.386;7.028;2022-09-09T06:14:58;1.87;;;1.30;;
2686;SDS011;1353;51.386;7.028;2022-09-09T06:17:25;4.90;;;1.70;;
2686;SDS011;1353;51.386;7.028;2022-09-09T06:19:51;3.43;;;1.40;;
2686;SDS011;1353;51.386;7.028;2022-09-09T06:22:18;4.67;;;2.00;;
2686;SDS011;1353;51.386;7.028;2022-09-09T06:24:45;2.53;;;1.40;;
2686;SDS011;1353;51.386;7.028;2022-09-09T06:27:12;4.70;;;1.57;;
2686;SDS011;1353;51.386;7.028;2022-09-09T06:29:40;9.23;;;2.63;;
2686;SDS011;1353;51.386;7.028;2022-09-09T06:32:07;3.60;;;2.17;;
2686;SDS011;1353;51.386;7.028;2022-09-09T06:34:34;2.30;;;1.73;;
2686;SDS011;1353;51.386;7.028;2022-09-09T06:37:01;6.70;;;1.70;;
2686;SDS011;1353;51.386;7.028;2022-09-09T06:39:29;4.80;;;1.47;;
2686;SDS011;1353;51.386;7.028;2022-09-09T06:41:56;1.57;;;1.47;;
2686;SDS011;1353;51.386;7.028;2022-09-09T06:44:23;2.40;;;1.40;;
2686;SDS011;1353;51.386;7.028;2022-09-09T06:46:53;5.80;;;2.10;;
2686;SDS011;1353;51.386;7.028;2022-09-09T06:49:20;2.03;;;1.90;;
2686;SDS011;1353;51.386;7.028;2022-09-09T06:51:46;3.77;;;1.80;;
2686;SDS011;1353;51.386;7.028;2022-09-09T06:54:14;2.90;;;1.40;;
2686;SDS011;1353;51.386;7.028;2022-09-09T06:56:41;1.40;;;1.30;;
2686;SDS011;1353;51.386;7.028;2022-09-09T06:59:10;1.73;;;1.20;;
2686;SDS011;1353;51.386;7.028;2022-09-09T07:01:38;2.80;;;1.97;;
2686;SDS011;1353;51.386;7.028;2022-09-09T07:04:07;6.43;;;1.53;;
2686;SDS011;1353;51.386;7.028;2022-09-09T07:06:36;2.80;;;1.70;;
2686;SDS011;1353;51.386;7.028;2022-09-09T07:09:05;3.10;;;1.53;;
2686;SDS011;1353;51.386;7.028;2022-09-09T07:11:34;3.50;;;1.30;;
2686;SDS011;1353;51.386;7.028;2022-09-09T07:14:03;2.80;;;1.57;;
2686;SDS011;1353;51.386;7.028;2022-09-09T07:16:30;3.43;;;1.43;;
2686;SDS011;1353;51.386;7.028;2022-09-09T07:18:58;2.47;;;1.40;;
2686;SDS011;1353;51.386;7.028;2022-09-09T07:21:27;4.60;;;2.73;;
2686;SDS011;1353;51.386;7.028;2022-09-09T07:23:55;2.80;;;1.13;;
2686;SDS011;1353;51.386;7.028;2022-09-09T07:26:23;4.67;;;2.10;;
2686;SDS011;1353;51.386;7.028;2022-09-09T07:28:52;3.93;;;1.53;;
2686;SDS011;1353;51.386;7.028;2022-09-09T07:31:21;6.33;;;1.47;;
2686;SDS011;1353;51.386;7.028;2022-09-09T07:33:50;2.37;;;1.17;;
2686;SDS011;1353;51.386;7.028;2022-09-09T07:36:17;4.03;;;1.20;;
2686;SDS011;1353;51.386;7.028;2022-09-09T07:38:48;3.23;;;1.27;;
2686;SDS011;1353;51.386;7.028;2022-09-09T07:41:18;4.10;;;1.40;;
2686;SDS011;1353;51.386;7.028;2022-09-09T07:43:46;2.63;;;1.10;;
2686;SDS011;1353;51.386;7.028;2022-09-09T07:46:16;6.60;;;1.57;;
2686;SDS011;1353;51.386;7.028;2022-09-09T07:48:45;2.10;;;1.50;;
2686;SDS011;1353;51.386;7.028;2022-09-09T07:51:17;9.93;;;1.67;;
2686;SDS011;1353;51.386;7.028;2022-09-09T07:53:50;4.83;;;1.20;;
2686;SDS011;1353;51.386;7.028;2022-09-09T07:56:18;3.23;;;1.40;;
2686;SDS011;1353;51.386;7.028;2022-09-09T07:58:48;4.70;;;1.23;;
2686;SDS011;1353;51.386;7.028;2022-09-09T08:01:17;11.87;;;1.97;;
2686;SDS011;1353;51.386;7.028;2022-09-09T08:03:45;2.33;;;1.40;;
2686;SDS011;1353;51.386;7.028;2022-09-09T08:06:13;5.23;;;1.83;;
2686;SDS011;1353;51.386;7.028;2022-09-09T08:08:40;7.33;;;2.50;;
2686;SDS011;1353;51.386;7.028;2022-09-09T08:11:11;10.20;;;1.50;;
2686;SDS011;1353;51.386;7.028;2022-09-09T08:13:39;3.83;;;1.50;;
2686;SDS011;1353;51.386;7.028;2022-09-09T08:16:07;1.40;;;1.27;;
2686;SDS011;1353;51.386;7.028;2022-09-09T08:18:36;1.90;;;1.67;;
2686;SDS011;1353;51.386;7.028;2022-09-09T08:21:07;2.93;;;2.07;;
2686;SDS011;1353;51.386;7.028;2022-09-09T08:23:37;4.47;;;1.37;;
2686;SDS011;1353;51.386;7.028;2022-09-09T08:26:09;2.50;;;1.27;;
2686;SDS011;1353;51.386;7.028;2022-09-09T08:28:40;4.47;;;1.50;;
2686;SDS011;1353;51.386;7.028;2022-09-09T08:31:08;4.17;;;1.93;;
2686;SDS011;1353;51.386;7.028;2022-09-09T08:33:36;3.10;;;1.33;;
2686;SDS011;1353;51.386;7.028;2022-09-09T08:36:04;6.83;;;1.47;;
2686;SDS011;1353;51.386;7.028;2022-09-09T08:38:32;2.57;;;0.97;;
2686;SDS011;1353;51.386;7.028;2022-09-09T08:41:04;4.07;;;1.43;;
2686;SDS011;1353;51.386;7.028;2022-09-09T08:43:48;3.20;;;1.40;;
2686;SDS011;1353;51.386;7.028;2022-09-09T08:46:25;1.63;;;1.23;;
2686;SDS011;1353;51.386;7.028;2022-09-09T08:49:00;3.17;;;1.67;;
2686;SDS011;1353;51.386;7.028;2022-09-09T08:51:30;1.60;;;0.90;;
2686;SDS011;1353;51.386;7.028;2022-09-09T08:53:59;2.30;;;1.43;;
2686;SDS011;1353;51.386;7.028;2022-09-09T08:56:30;2.67;;;1.60;;
2686;SDS011;1353;51.386;7.028;2022-09-09T08:58:59;1.53;;;1.03;;
2686;SDS011;1353;51.386;7.028;2022-09-09T09:01:40;3.10;;;1.83;;
2686;SDS011;1353;51.386;7.028;2022-09-09T09:04:18;4.20;;;1.30;;
2686;SDS011;1353;51.386;7.028;2022-09-09T09:06:59;2.93;;;1.23;;
2686;SDS011;1353;51.386;7.028;2022-09-09T09:09:35;1.63;;;1.53;;
2686;SDS011;1353;51.386;7.028;2022-09-09T09:12:15;3.47;;;1.20;;
2686;SDS011;1353;51.386;7.028;2022-09-09T09:14:44;5.17;;;1.47;;
2686;SDS011;1353;51.386;7.028;2022-09-09T09:17:14;1.93;;;1.27;;
2686;SDS011;1353;51.386;7.028;2022-09-09T09:19:42;1.10;;;1.00;;
2686;SDS011;1353;51.386;7.028;2022-09-09T09:22:13;4.13;;;1.10;;
2686;SDS011;1353;51.386;7.028;2022-09-09T09:24:45;3.37;;;1.43;;
2686;SDS011;1353;51.386;7.028;2022-09-09T09:27:21;5.03;;;1.50;;
2686;SDS011;1353;51.386;7.028;2022-09-09T09:29:55;3.13;;;1.33;;
2686;SDS011;1353;51.386;7.028;2022-09-09T09:32:24;4.23;;;1.43;;
2686;SDS011;1353;51.386;7.028;2022-09-09T09:34:53;3.13;;;1.23;;
2686;SDS011;1353;51.386;7.028;2022-09-09T09:37:23;4.03;;;1.90;;
2686;SDS011;1353;51.386;7.028;2022-09-09T09:39:54;2.20;;;1.20;;
2686;SDS011;1353;51.386;7.028;2022-09-09T09:42:22;2.70;;;1.00;;
2686;SDS011;1353;51.386;7.028;2022-09-09T09:44:51;3.20;;;1.10;;
2686;SDS011;1353;51.386;7.028;2022-09-09T09:47:18;1.87;;;1.10;;
2686;SDS011;1353;51.386;7.028;2022-09-09T09:49:52;3.67;;;1.00;;
2686;SDS011;1353;51.386;7.028;2022-09-09T09:52:21;4.10;;;1.30;;
2686;SDS011;1353;51.386;7.028;2022-09-09T09:54:49;5.83;;;1.53;;
2686;SDS011;1353;51.386;7.028;2022-09-09T09:57:17;1.70;;;1.10;;
2686;SDS011;1353;51.386;7.028;2022-09-09T09:59:59;3.83;;;1.10;;
2686;SDS011;1353;51.386;7.028;2022-09-09T10:02:31;5.47;;;1.27;;
2686;SDS011;1353;51.386;7.028;2022-09-09T10:05:05;3.53;;;1.17;;
2686;SDS011;1353;51.386;7.028;2022-09-09T10:07:39;2.23;;;1.30;;
2686;SDS011;1353;51.386;7.028;2022-09-09T10:10:08;2.47;;;1.10;;
2686;SDS011;1353;51.386;7.028;2022-09-09T10:12:42;2.07;;;0.90;;
2686;SDS011;1353;51.386;7.028;2022-09-09T10:15:26;1.80;;;0.93;;
2686;SDS011;1353;51.386;7.028;2022-09-09T10:18:04;2.70;;;1.07;;
2686;SDS011;1353;51.386;7.028;2022-09-09T10:20:42;1.20;;;0.93;;
2686;SDS011;1353;51.386;7.028;2022-09-09T10:23:21;1.10;;;0.80;;
2686;SDS011;1353;51.386;7.028;2022-09-09T10:26:02;3.47;;;1.43;;
2686;SDS011;1353;51.386;7.028;2022-09-09T10:28:52;2.07;;;0.90;;
2686;SDS011;1353;51.386;7.028;2022-09-09T10:31:29;1.93;;;1.10;;
2686;SDS011;1353;51.386;7.028;2022-09-09T10:34:06;2.10;;;1.00;;
2686;SDS011;1353;51.386;7.028;2022-09-09T10:36:44;2.60;;;1.20;;
2686;SDS011;1353;51.386;7.028;2022-09-09T10:39:16;3.33;;;0.97;;
2686;SDS011;1353;51.386;7.028;2022-09-09T10:42:02;1.33;;;1.00;;
2686;SDS011;1353;51.386;7.028;2022-09-09T10:44:39;1.87;;;1.20;;
2686;SDS011;1353;51.386;7.028;2022-09-09T10:47:19;3.00;;;1.30;;
2686;SDS011;1353;51.386;7.028;2022-09-09T10:50:06;3.87;;;2.20;;
2686;SDS011;1353;51.386;7.028;2022-09-09T10:52:45;1.87;;;0.90;;
2686;SDS011;1353;51.386;7.028;2022-09-09T10:55:19;2.90;;;1.10;;
2686;SDS011;1353;51.386;7.028;2022-09-09T10:57:51;2.67;;;1.00;;
2686;SDS011;1353;51.386;7.028;2022-09-09T11:00:20;3.43;;;1.00;;
2686;SDS011;1353;51.386;7.028;2022-09-09T11:02:50;2.23;;;0.90;;
2686;SDS011;1353;51.386;7.028;2022-09-09T11:05:24;7.10;;;1.80;;
2686;SDS011;1353;51.386;7.028;2022-09-09T11:07:56;3.10;;;1.13;;
2686;SDS011;1353;51.386;7.028;2022-09-09T11:10:29;1.37;;;0.97;;
2686;SDS011;1353;51.386;7.028;2022-09-09T11:13:03;2.60;;;1.10;;
2686;SDS011;1353;51.386;7.028;2022-09-09T11:15:35;3.53;;;1.10;;
2686;SDS011;1353;51.386;7.028;2022-09-09T11:18:10;2.40;;;1.00;;
2686;SDS011;1353;51.386;7.028;2022-09-09T11:20:39;1.30;;;0.87;;
2686;SDS011;1353;51.386;7.028;2022-09-09T11:23:09;3.90;;;0.90;;
2686;SDS011;1353;51.386;7.028;2022-09-09T11:25:39;2.70;;;0.90;;
2686;SDS011;1353;51.386;7.028;2022-09-09T11:28:17;0.97;;;0.87;;
2686;SDS011;1353;51.386;7.028;2022-09-09T11:30:56;4.30;;;1.00;;
2686;SDS011;1353;51.386;7.028;2022-09-09T11:33:48;1.40;;;0.97;;
2686;SDS011;1353;51.386;7.028;2022-09-09T11:36:26;3.47;;;1.00;;
2686;SDS011;1353;51.386;7.028;2022-09-09T11:39:36;3.40;;;1.07;;
2686;SDS011;1353;51.386;7.028;2022-09-09T11:42:15;1.90;;;0.93;;
2686;SDS011;1353;51.386;7.028;2022-09-09T11:44:44;2.33;;;0.80;;
2686;SDS011;1353;51.386;7.028;2022-09-09T11:47:21;4.10;;;0.70;;
2686;SDS011;1353;51.386;7.028;2022-09-09T11:49:55;1.80;;;0.87;;
2686;SDS011;1353;51.386;7.028;2022-09-09T11:52:36;1.47;;;1.00;;
2686;SDS011;1353;51.386;7.028;2022-09-09T11:55:08;2.20;;;1.00;;
2686;SDS011;1353;51.386;7.028;2022-09-09T11:57:37;1.80;;;1.10;;
2686;SDS011;1353;51.386;7.028;2022-09-09T12:00:05;2.47;;;1.17;;
2686;SDS011;1353;51.386;7.028;2022-09-09T12:02:33;2.30;;;0.93;;
2686;SDS011;1353;51.386;7.028;2022-09-09T12:05:04;2.60;;;1.20;;
2686;SDS011;1353;51.386;7.028;2022-09-09T12:07:35;1.23;;;0.90;;
2686;SDS011;1353;51.386;7.028;2022-09-09T12:10:05;2.30;;;0.87;;
2686;SDS011;1353;51.386;7.028;2022-09-09T12:12:48;1.00;;;0.80;;
2686;SDS011;1353;51.386;7.028;2022-09-09T12:15:23;0.80;;;0.77;;
2686;SDS011;1353;51.386;7.028;2022-09-09T12:17:54;1.27;;;0.70;;
2686;SDS011;1353;51.386;7.028;2022-09-09T12:20:26;1.80;;;1.00;;
2686;SDS011;1353;51.386;7.028;2022-09-09T12:23:14;1.40;;;0.97;;
2686;SDS011;1353;51.386;7.028;2022-09-09T12:25:53;4.53;;;1.40;;
2686;SDS011;1353;51.386;7.028;2022-09-09T12:28:41;1.50;;;0.90;;
2686;SDS011;1353;51.386;7.028;2022-09-09T12:31:17;1.30;;;0.83;;
2686;SDS011;1353;51.386;7.028;2022-09-09T12:33:50;1.73;;;0.73;;
2686;SDS011;1353;51.386;7.028;2022-09-09T12:36:19;1.33;;;0.90;;
2686;SDS011;1353;51.386;7.028;2022-09-09T12:38:50;1.37;;;1.10;;
2686;SDS011;1353;51.386;7.028;2022-09-09T12:41:18;1.80;;;1.10;;
2686;SDS011;1353;51.386;7.028;2022-09-09T12:43:47;1.03;;;0.93;;
2686;SDS011;1353;51.386;7.028;2022-09-09T12:46:16;2.80;;;0.97;;
2686;SDS011;1353;51.386;7.028;2022-09-09T12:48:51;1.80;;;0.90;;
2686;SDS011;1353;51.386;7.028;2022-09-09T12:51:23;4.33;;;1.40;;
2686;SDS011;1353;51.386;7.028;2022-09-09T12:53:53;4.43;;;1.20;;
2686;SDS011;1353;51.386;7.028;2022-09-09T12:56:20;1.33;;;0.93;;
2686;SDS011;1353;51.386;7.028;2022-09-09T12:58:52;1.10;;;1.00;;
2686;SDS011;1353;51.386;7.028;2022-09-09T13:01:21;1.97;;;1.47;;
2686;SDS011;1353;51.386;7.028;2022-09-09T13:03:49;1.67;;;0.93;;
2686;SDS011;1353;51.386;7.028;2022-09-09T13:06:20;1.97;;;1.10;;
2686;SDS011;1353;51.386;7.028;2022-09-09T13:08:50;2.73;;;1.57;;
2686;SDS011;1353;51.386;7.028;2022-09-09T13:11:19;3.80;;;1.00;;
2686;SDS011;1353;51.386;7.028;2022-09-09T13:13:50;2.43;;;1.40;;
2686;SDS011;1353;51.386;7.028;2022-09-09T13:16:19;1.73;;;0.80;;
2686;SDS011;1353;51.386;7.028;2022-09-09T13:18:48;1.50;;;1.07;;
2686;SDS011;1353;51.386;7.028;2022-09-09T13:21:15;1.30;;;1.00;;
2686;SDS011;1353;51.386;7.028;2022-09-09T13:23:48;3.53;;;2.30;;
2686;SDS011;1353;51.386;7.028;2022-09-09T13:26:21;1.50;;;1.13;;
2686;SDS011;1353;51.386;7.028;2022-09-09T13:28:49;2.43;;;1.70;;
2686;SDS011;1353;51.386;7.028;2022-09-09T13:31:22;2.83;;;1.10;;
2686;SDS011;1353;51.386;7.028;2022-09-09T13:33:52;3.33;;;2.00;;
2686;SDS011;1353;51.386;7.028;2022-09-09T13:36:27;4.40;;;4.00;;
2686;SDS011;1353;51.386;7.028;2022-09-09T13:38:57;6.43;;;3.63;;
2686;SDS011;1353;51.386;7.028;2022-09-09T13:41:26;3.83;;;3.53;;
2686;SDS011;1353;51.386;7.028;2022-09-09T13:43:56;3.20;;;2.97;;
2686;SDS011;1353;51.386;7.028;2022-09-09T13:46:24;4.40;;;3.03;;
2686;SDS011;1353;51.386;7.028;2022-09-09T13:48:55;6.27;;;2.70;;
2686;SDS011;1353;51.386;7.028;2022-09-09T13:51:26;4.17;;;2.70;;
2686;SDS011;1353;51.386;7.028;2022-09-09T13:53:59;3.23;;;2.27;;
2686;SDS011;1353;51.386;7.028;2022-09-09T13:56:26;8.53;;;3.70;;
2686;SDS011;1353;51.386;7.028;2022-09-09T13:58:53;6.27;;;2.53;;
2686;SDS011;1353;51.386;7.028;2022-09-09T14:01:20;2.50;;;2.30;;
2686;SDS011;1353;51.386;7.028;2022-09-09T14:03:46;3.90;;;2.80;;
2686;SDS011;1353;51.386;7.028;2022-09-09T14:06:13;3.57;;;2.37;;
2686;SDS011;1353;51.386;7.028;2022-09-09T14:08:40;6.90;;;3.20;;
2686;SDS011;1353;51.386;7.028;2022-09-09T14:11:08;6.83;;;4.37;;
2686;SDS011;1353;51.386;7.028;2022-09-09T14:13:39;4.87;;;2.07;;
2686;SDS011;1353;51.386;7.028;2022-09-09T14:16:05;3.93;;;2.60;;
2686;SDS011;1353;51.386;7.028;2022-09-09T14:18:32;6.67;;;2.73;;
2686;SDS011;1353;51.386;7.028;2022-09-09T14:20:59;4.37;;;3.00;;
2686;SDS011;1353;51.386;7.028;2022-09-09T14:23:27;5.63;;;3.20;;
2686;SDS011;1353;51.386;7.028;2022-09-09T14:25:54;4.20;;;2.90;;
2686;SDS011;1353;51.386;7.028;2022-09-09T14:28:22;4.40;;;3.17;;
2686;SDS011;1353;51.386;7.028;2022-09-09T14:30:50;3.23;;;2.80;;
2686;SDS011;1353;51.386;7.028;2022-09-09T14:33:17;3.33;;;3.03;;
2686;SDS011;1353;51.386;7.028;2022-09-09T14:35:44;4.43;;;2.97;;
2686;SDS011;1353;51.386;7.028;2022-09-09T14:38:10;5.63;;;3.20;;
2686;SDS011;1353;51.386;7.028;2022-09-09T14:40:37;4.03;;;3.63;;
2686;SDS011;1353;51.386;7.028;2022-09-09T14:43:05;3.20;;;2.90;;
2686;SDS011;1353;51.386;7.028;2022-09-09T14:45:35;4.47;;;2.77;;
2686;SDS011;1353;51.386;7.028;2022-09-09T14:48:03;4.10;;;2.73;;
2686;SDS011;1353;51.386;7.028;2022-09-09T14:50:30;3.10;;;2.77;;
2686;SDS011;1353;51.386;7.028;2022-09-09T14:52:57;5.20;;;3.17;;
2686;SDS011;1353;51.386;7.028;2022-09-09T14:55:23;5.57;;;3.00;;
2686;SDS011;1353;51.386;7.028;2022-09-09T14:57:53;3.20;;;2.77;;
2686;SDS011;1353;51.386;7.028;2022-09-09T15:00:20;8.53;;;4.30;;
2686;SDS011;1353;51.386;7.028;2022-09-09T15:02:48;3.17;;;2.97;;
2686;SDS011;1353;51.386;7.028;2022-09-09T15:05:18;2.00;;;1.90;;
2686;SDS011;1353;51.386;7.028;2022-09-09T15:07:45;1.87;;;1.50;;
2686;SDS011;1353;51.386;7.028;2022-09-09T15:10:12;1.77;;;1.70;;
2686;SDS011;1353;51.386;7.028;2022-09-09T15:12:38;1.70;;;1.60;;
2686;SDS011;1353;51.386;7.028;2022-09-09T15:15:07;1.77;;;1.67;;
2686;SDS011;1353;51.386;7.028;2022-09-09T15:17:34;2.03;;;1.27;;
2686;SDS011;1353;51.386;7.028;2022-09-09T15:20:03;1.20;;;1.10;;
2686;SDS011;1353;51.386;7.028;2022-09-09T15:22:31;1.20;;;1.10;;
2686;SDS011;1353;51.386;7.028;2022-09-09T15:24:58;1.50;;;0.90;;
2686;SDS011;1353;51.386;7.028;2022-09-09T15:27:25;1.77;;;0.90;;
2686;SDS011;1353;51.386;7.028;2022-09-09T15:29:52;1.33;;;1.03;;
2686;SDS011;1353;51.386;7.028;2022-09-09T15:32:19;3.47;;;0.90;;
2686;SDS011;1353;51.386;7.028;2022-09-09T15:34:46;2.00;;;1.33;;
2686;SDS011;1353;51.386;7.028;2022-09-09T15:37:17;1.83;;;0.90;;
2686;SDS011;1353;51.386;7.028;2022-09-09T15:39:44;15.43;;;1.10;;